Breckenridge, Illinois
Current Conditions -  °F | °C
As of 6:52 PM on Monday 26 Jan 2015 (Local Time) from KSPI Reporting Station
Overcast Overcast  
Wind Chill: -3°   Ceiling: 2500
Heat Index:   Visibility: 9mi
Dew Point: -2°   Wind: 7mph
Humidity: 82%   Direction: 210°SSW
Pressure: 29.89"   Gusts: NA
Location:  39.7312°N, 89.5322°W
Report Text: KSPI 270052Z 21006KT 9SM OVC025 01/M02 A2989 RMK AO2 SLP128 T00061022
Loading
Personal Weather Stations






























Interactive Weather Map New forecast layout! Learn more

10-Day Weather Forecast

Advertisements
Track Severe Weather on mobile